sensor_id;sensor_type;location;lat;lon;timestamp;P1;durP1;ratioP1;P2;durP2;ratioP2
12369;SDS011;6249;52.128;9.986;2023-05-23T00:04:12;29.17;;;20.07;;
12369;SDS011;6249;52.128;9.986;2023-05-23T00:14:16;27.43;;;18.50;;
12369;SDS011;6249;52.128;9.986;2023-05-23T00:24:18;29.97;;;18.53;;
12369;SDS011;6249;52.128;9.986;2023-05-23T00:34:19;26.27;;;19.70;;
12369;SDS011;6249;52.128;9.986;2023-05-23T00:44:20;26.40;;;18.97;;
12369;SDS011;6249;52.128;9.986;2023-05-23T00:54:23;36.03;;;21.53;;
12369;SDS011;6249;52.128;9.986;2023-05-23T01:04:30;33.00;;;25.30;;
12369;SDS011;6249;52.128;9.986;2023-05-23T01:35:37;41.63;;;29.40;;
12369;SDS011;6249;52.128;9.986;2023-05-23T01:45:38;49.63;;;32.40;;
12369;SDS011;6249;52.128;9.986;2023-05-23T01:55:40;72.50;;;44.33;;
12369;SDS011;6249;52.128;9.986;2023-05-23T02:05:41;71.37;;;47.93;;
12369;SDS011;6249;52.128;9.986;2023-05-23T02:15:44;77.40;;;46.27;;
12369;SDS011;6249;52.128;9.986;2023-05-23T02:25:45;58.27;;;39.10;;
12369;SDS011;6249;52.128;9.986;2023-05-23T02:35:45;57.15;;;35.10;;
12369;SDS011;6249;52.128;9.986;2023-05-23T02:45:49;45.00;;;29.33;;
12369;SDS011;6249;52.128;9.986;2023-05-23T02:55:49;30.97;;;21.70;;
12369;SDS011;6249;52.128;9.986;2023-05-23T03:05:52;34.87;;;18.93;;
12369;SDS011;6249;52.128;9.986;2023-05-23T03:15:53;34.20;;;19.07;;
12369;SDS011;6249;52.128;9.986;2023-05-23T03:25:53;29.03;;;18.40;;
12369;SDS011;6249;52.128;9.986;2023-05-23T03:35:54;25.57;;;17.67;;
12369;SDS011;6249;52.128;9.986;2023-05-23T03:45:57;23.77;;;16.77;;
12369;SDS011;6249;52.128;9.986;2023-05-23T03:56:00;27.10;;;19.43;;
12369;SDS011;6249;52.128;9.986;2023-05-23T04:06:01;30.37;;;17.87;;
12369;SDS011;6249;52.128;9.986;2023-05-23T04:16:01;29.67;;;19.20;;
12369;SDS011;6249;52.128;9.986;2023-05-23T04:26:04;31.70;;;20.83;;
12369;SDS011;6249;52.128;9.986;2023-05-23T04:36:05;37.40;;;23.38;;
12369;SDS011;6249;52.128;9.986;2023-05-23T04:46:08;37.40;;;23.73;;
12369;SDS011;6249;52.128;9.986;2023-05-23T04:56:09;25.27;;;16.50;;
12369;SDS011;6249;52.128;9.986;2023-05-23T05:06:09;22.60;;;13.90;;
12369;SDS011;6249;52.128;9.986;2023-05-23T05:16:13;16.23;;;10.80;;
12369;SDS011;6249;52.128;9.986;2023-05-23T05:26:13;18.70;;;11.40;;
12369;SDS011;6249;52.128;9.986;2023-05-23T05:36:14;20.37;;;12.27;;
12369;SDS011;6249;52.128;9.986;2023-05-23T05:46:15;18.52;;;12.10;;
12369;SDS011;6249;52.128;9.986;2023-05-23T05:56:15;21.23;;;13.13;;
12369;SDS011;6249;52.128;9.986;2023-05-23T06:06:16;23.07;;;15.73;;
12369;SDS011;6249;52.128;9.986;2023-05-23T06:16:16;22.87;;;14.80;;
12369;SDS011;6249;52.128;9.986;2023-05-23T06:26:17;17.08;;;10.82;;
12369;SDS011;6249;52.128;9.986;2023-05-23T06:36:20;15.32;;;10.30;;
12369;SDS011;6249;52.128;9.986;2023-05-23T06:46:23;17.77;;;11.40;;
12369;SDS011;6249;52.128;9.986;2023-05-23T06:56:28;13.67;;;9.40;;
12369;SDS011;6249;52.128;9.986;2023-05-23T07:06:31;16.63;;;7.57;;
12369;SDS011;6249;52.128;9.986;2023-05-23T07:16:35;15.47;;;10.67;;
12369;SDS011;6249;52.128;9.986;2023-05-23T07:26:35;12.57;;;9.23;;
12369;SDS011;6249;52.128;9.986;2023-05-23T07:36:38;15.83;;;9.83;;
12369;SDS011;6249;52.128;9.986;2023-05-23T07:46:39;13.40;;;8.70;;
12369;SDS011;6249;52.128;9.986;2023-05-23T07:56:42;14.80;;;9.70;;
12369;SDS011;6249;52.128;9.986;2023-05-23T08:06:46;18.53;;;10.77;;
12369;SDS011;6249;52.128;9.986;2023-05-23T08:16:48;13.10;;;8.20;;
12369;SDS011;6249;52.128;9.986;2023-05-23T08:26:49;10.53;;;6.97;;
12369;SDS011;6249;52.128;9.986;2023-05-23T08:36:52;12.80;;;8.50;;
12369;SDS011;6249;52.128;9.986;2023-05-23T08:46:53;13.83;;;9.47;;
12369;SDS011;6249;52.128;9.986;2023-05-23T08:56:56;19.23;;;11.13;;
12369;SDS011;6249;52.128;9.986;2023-05-23T09:06:57;28.83;;;14.80;;
12369;SDS011;6249;52.128;9.986;2023-05-23T09:17:01;18.30;;;11.50;;
12369;SDS011;6249;52.128;9.986;2023-05-23T09:27:01;23.37;;;14.10;;
12369;SDS011;6249;52.128;9.986;2023-05-23T09:37:05;14.70;;;7.33;;
12369;SDS011;6249;52.128;9.986;2023-05-23T09:47:06;23.30;;;7.87;;
12369;SDS011;6249;52.128;9.986;2023-05-23T09:57:08;22.97;;;8.13;;
12369;SDS011;6249;52.128;9.986;2023-05-23T10:07:13;19.80;;;6.93;;
12369;SDS011;6249;52.128;9.986;2023-05-23T10:17:24;15.57;;;7.07;;
12369;SDS011;6249;52.128;9.986;2023-05-23T10:27:27;13.97;;;5.33;;
12369;SDS011;6249;52.128;9.986;2023-05-23T10:37:32;8.10;;;4.50;;
12369;SDS011;6249;52.128;9.986;2023-05-23T10:47:42;9.43;;;5.20;;
12369;SDS011;6249;52.128;9.986;2023-05-23T10:57:43;15.97;;;6.80;;
12369;SDS011;6249;52.128;9.986;2023-05-23T11:07:44;19.40;;;7.63;;
12369;SDS011;6249;52.128;9.986;2023-05-23T11:17:55;17.33;;;9.10;;
12369;SDS011;6249;52.128;9.986;2023-05-23T11:27:56;22.10;;;7.93;;
12369;SDS011;6249;52.128;9.986;2023-05-23T11:37:56;21.70;;;7.17;;
12369;SDS011;6249;52.128;9.986;2023-05-23T11:47:58;23.77;;;7.77;;
12369;SDS011;6249;52.128;9.986;2023-05-23T11:58:06;17.97;;;7.20;;
12369;SDS011;6249;52.128;9.986;2023-05-23T12:08:09;19.80;;;8.80;;
12369;SDS011;6249;52.128;9.986;2023-05-23T12:18:13;25.70;;;10.47;;
12369;SDS011;6249;52.128;9.986;2023-05-23T12:28:14;19.42;;;7.97;;
12369;SDS011;6249;52.128;9.986;2023-05-23T12:38:15;34.70;;;10.07;;
12369;SDS011;6249;52.128;9.986;2023-05-23T12:48:16;30.13;;;7.57;;
12369;SDS011;6249;52.128;9.986;2023-05-23T12:58:19;21.10;;;6.70;;
12369;SDS011;6249;52.128;9.986;2023-05-23T13:08:20;17.53;;;6.47;;
12369;SDS011;6249;52.128;9.986;2023-05-23T13:18:24;24.13;;;6.13;;
12369;SDS011;6249;52.128;9.986;2023-05-23T13:28:29;17.20;;;5.83;;
12369;SDS011;6249;52.128;9.986;2023-05-23T13:38:29;25.47;;;5.90;;
12369;SDS011;6249;52.128;9.986;2023-05-23T13:48:31;21.93;;;5.57;;
12369;SDS011;6249;52.128;9.986;2023-05-23T13:58:34;17.03;;;4.87;;
12369;SDS011;6249;52.128;9.986;2023-05-23T14:08:34;16.60;;;4.68;;
12369;SDS011;6249;52.128;9.986;2023-05-23T14:18:35;24.13;;;5.70;;
12369;SDS011;6249;52.128;9.986;2023-05-23T14:28:36;17.00;;;5.30;;
12369;SDS011;6249;52.128;9.986;2023-05-23T14:38:36;13.33;;;4.53;;
12369;SDS011;6249;52.128;9.986;2023-05-23T14:48:40;14.70;;;5.03;;
12369;SDS011;6249;52.128;9.986;2023-05-23T14:58:43;15.20;;;4.90;;
12369;SDS011;6249;52.128;9.986;2023-05-23T15:08:49;9.77;;;4.40;;
12369;SDS011;6249;52.128;9.986;2023-05-23T15:18:51;14.90;;;4.13;;
12369;SDS011;6249;52.128;9.986;2023-05-23T15:28:51;13.02;;;3.97;;
12369;SDS011;6249;52.128;9.986;2023-05-23T15:38:54;16.35;;;4.70;;
12369;SDS011;6249;52.128;9.986;2023-05-23T15:49:02;14.73;;;4.80;;
12369;SDS011;6249;52.128;9.986;2023-05-23T15:59:02;15.60;;;3.83;;
12369;SDS011;6249;52.128;9.986;2023-05-23T16:09:06;17.50;;;4.20;;
12369;SDS011;6249;52.128;9.986;2023-05-23T16:19:09;16.00;;;4.30;;
12369;SDS011;6249;52.128;9.986;2023-05-23T16:29:11;19.97;;;4.03;;
12369;SDS011;6249;52.128;9.986;2023-05-23T16:39:12;16.80;;;3.70;;
12369;SDS011;6249;52.128;9.986;2023-05-23T16:49:14;16.60;;;4.20;;
12369;SDS011;6249;52.128;9.986;2023-05-23T16:59:15;14.47;;;3.40;;
12369;SDS011;6249;52.128;9.986;2023-05-23T17:09:16;18.40;;;4.03;;
12369;SDS011;6249;52.128;9.986;2023-05-23T17:19:18;18.40;;;3.30;;
12369;SDS011;6249;52.128;9.986;2023-05-23T17:29:18;11.93;;;3.23;;
12369;SDS011;6249;52.128;9.986;2023-05-23T17:39:21;14.17;;;2.93;;
12369;SDS011;6249;52.128;9.986;2023-05-23T17:49:22;12.17;;;3.23;;
12369;SDS011;6249;52.128;9.986;2023-05-23T17:59:23;21.27;;;3.60;;
12369;SDS011;6249;52.128;9.986;2023-05-23T18:09:23;11.97;;;2.87;;
12369;SDS011;6249;52.128;9.986;2023-05-23T18:19:26;14.13;;;3.28;;
12369;SDS011;6249;52.128;9.986;2023-05-23T18:29:30;16.23;;;3.53;;
12369;SDS011;6249;52.128;9.986;2023-05-23T18:39:31;19.07;;;3.00;;
12369;SDS011;6249;52.128;9.986;2023-05-23T18:49:36;17.53;;;3.23;;
12369;SDS011;6249;52.128;9.986;2023-05-23T18:59:37;12.25;;;3.10;;
12369;SDS011;6249;52.128;9.986;2023-05-23T19:09:37;17.23;;;3.60;;
12369;SDS011;6249;52.128;9.986;2023-05-23T19:19:40;14.83;;;3.30;;
12369;SDS011;6249;52.128;9.986;2023-05-23T19:29:43;16.20;;;3.63;;
12369;SDS011;6249;52.128;9.986;2023-05-23T19:39:48;14.80;;;3.53;;
12369;SDS011;6249;52.128;9.986;2023-05-23T19:49:51;18.87;;;3.90;;
12369;SDS011;6249;52.128;9.986;2023-05-23T19:59:51;11.10;;;2.88;;
12369;SDS011;6249;52.128;9.986;2023-05-23T20:09:55;15.90;;;3.30;;
12369;SDS011;6249;52.128;9.986;2023-05-23T20:19:55;19.40;;;3.70;;
12369;SDS011;6249;52.128;9.986;2023-05-23T20:29:58;26.10;;;4.47;;
12369;SDS011;6249;52.128;9.986;2023-05-23T20:40:00;20.77;;;3.80;;
12369;SDS011;6249;52.128;9.986;2023-05-23T20:50:00;15.20;;;3.33;;
12369;SDS011;6249;52.128;9.986;2023-05-23T21:00:02;9.97;;;3.00;;
12369;SDS011;6249;52.128;9.986;2023-05-23T21:10:09;16.00;;;3.10;;
12369;SDS011;6249;52.128;9.986;2023-05-23T21:20:12;24.23;;;3.87;;
12369;SDS011;6249;52.128;9.986;2023-05-23T21:30:13;19.67;;;3.90;;
12369;SDS011;6249;52.128;9.986;2023-05-23T21:40:14;15.57;;;3.67;;
12369;SDS011;6249;52.128;9.986;2023-05-23T21:50:15;21.63;;;3.00;;
12369;SDS011;6249;52.128;9.986;2023-05-23T22:00:17;15.97;;;3.50;;
12369;SDS011;6249;52.128;9.986;2023-05-23T22:10:18;18.03;;;3.10;;
12369;SDS011;6249;52.128;9.986;2023-05-23T22:20:22;13.90;;;4.33;;
12369;SDS011;6249;52.128;9.986;2023-05-23T22:30:22;23.87;;;5.20;;
12369;SDS011;6249;52.128;9.986;2023-05-23T22:40:25;17.07;;;3.07;;
12369;SDS011;6249;52.128;9.986;2023-05-23T22:50:26;21.13;;;3.47;;
12369;SDS011;6249;52.128;9.986;2023-05-23T23:00:29;17.63;;;4.10;;
12369;SDS011;6249;52.128;9.986;2023-05-23T23:10:29;22.63;;;3.53;;
12369;SDS011;6249;52.128;9.986;2023-05-23T23:20:30;21.17;;;3.70;;
12369;SDS011;6249;52.128;9.986;2023-05-23T23:30:30;18.05;;;3.50;;
12369;SDS011;6249;52.128;9.986;2023-05-23T23:40:33;22.60;;;3.57;;
12369;SDS011;6249;52.128;9.986;2023-05-23T23:50:36;16.97;;;3.20;;
